ADDS METAR Data INFO
IDs: Format: Raw Decoded Include TAF

Data at: 1737 UTC 25 Feb 2018

KRIL 251653Z AUTO 00000KT 10SM CLR M06/M11 A3012 RMK AO2 SLP236 T10561111
KRIL 251553Z AUTO 00000KT 10SM CLR M07/M11 A3010 RMK AO2 SLP231 T10721106
KRIL 251453Z AUTO 00000KT 10SM SCT048 M09/M12 A3006 RMK AO2 SLP223 T10941117 53021
KRIL 251353Z AUTO 23003KT 10SM OVC050 M09/M12 A3003 RMK AO2 SLP215 T10891117
KRIL 251253Z AUTO 00000KT 10SM BKN047 OVC060 M08/M11 A3001 RMK AO2 SLP206 T10831111
KRIL 251153Z AUTO 00000KT 10SM BKN055 OVC070 M08/M11 A2999 RMK AO2 SLP191 T10781111 11050 21106 53010
KRIL 251053Z AUTO 20005KT 10SM OVC070 M08/M12 A2996 RMK AO2 SLP185 T10831122
KRIL 250953Z AUTO 21005KT 10SM BKN085 BKN100 M09/M13 A2995 RMK AO2 SLP184 T10941128
KRIL 250853Z AUTO 13007KT 10SM CLR M10/M13 A2996 RMK AO2 SLP187 T11001133 53001
KRIL 250753Z AUTO 21007KT 10SM BKN065 M07/M11 A2995 RMK AO2 SLP177 T10671111
KRIL 250653Z AUTO 18004KT 10SM CLR M06/M10 A2995 RMK AO2 SLP175 T10611100 410221078
KRIL 250553Z AUTO 00000KT 10SM BKN090 OVC110 M04/M10 A2995 RMK AO2 SLP177 T10441100 11022 21056 50004
KRIL 250453Z AUTO 18006KT 10SM BKN048 BKN055 OVC070 M04/M10 A2995 RMK AO2 SLP179 T10441100
KRIL 250353Z AUTO 00000KT 10SM SCT070 OVC100 M03/M12 A2994 RMK AO2 SLP173 T10331117
KRIL 250253Z AUTO VRB04KT 10SM OVC060 M03/M13 A2994 RMK AO2 SLP172 T10281133 53003
KRIL 250153Z AUTO 16005KT 10SM OVC075 M04/M12 A2992 RMK AO2 SLP171 T10441122
KRIL 250053Z AUTO 17007KT 10SM FEW075 BKN120 M05/M13 A2992 RMK AO2 SLP170 T10501133
KRIL 242353Z AUTO 01003KT 10SM BKN070 M02/M16 A2992 RMK AO2 SLP163 T10221156 11022 21056 56018
KRIL 242253Z AUTO 00000KT 10SM FEW060 M03/M15 A2994 RMK AO2 SLP168 T10281150
KRIL 242153Z AUTO 21007KT 10SM FEW055 M03/M14 A2995 RMK AO2 SLP174 T10281139
KRIL 242053Z AUTO 26009KT 10SM BKN070 M03/M14 A2999 RMK AO2 SLP184 T10331139 58019
KRIL 241953Z AUTO 27013KT 10SM CLR M03/M14 A3001 RMK AO2 SLP195 T10331144
KRIL 241853Z AUTO 27014G21KT 10SM BKN100 M04/M15 A3004 RMK AO2 SLP205 T10391150
KRIL 241753Z AUTO 27010KT 10SM FEW023 M06/M12 A3005 RMK AO2 SLP210 60000 T10561122 11056 21078 51007
KRIL 241745Z AUTO 28010KT 10SM FEW023 SCT032 BKN048 M06/M12 A3005 RMK AO2 T10561117
KRIL 241736Z AUTO 27011KT 10SM BKN025 BKN046 BKN070 M06/M11 A3005 RMK AO2 T10611106
KRIL 241653Z AUTO 28014KT 10SM BKN032 OVC044 M06/M09 A3004 RMK AO2 SLP210 T10611089
KRIL 241553Z AUTO 28010KT 10SM FEW035 BKN044 OVC060 M07/M10 A3004 RMK AO2 SLP209 T10671100
KRIL 241453Z AUTO 25011KT 10SM FEW012 OVC039 M08/M09 A3003 RMK AO2 SLP210 60000 T10781094 53017
KRIL 241444Z AUTO 26008KT 10SM FEW012 OVC039 M07/M09 A3002 RMK AO2 T10721094
KRIL 241353Z AUTO 28005KT 10SM FEW029 BKN055 OVC075 M07/M09 A3000 RMK AO2 SNB24E35 SLP194 P0000 T10671094
KRIL 241253Z AUTO 31006KT 10SM OVC055 M06/M12 A2998 RMK AO2 SLP185 T10611122
KRIL 241153Z AUTO 29005KT 10SM OVC045 M06/M12 A2997 RMK AO2 SLP179 60000 T10611117 11033 21061 53007
KRIL 241053Z AUTO 32014KT 10SM BKN060 OVC070 M05/M12 A2996 RMK AO2 SLP174 T10501117
KRIL 240953Z AUTO 30013KT 10SM SCT055 OVC070 M05/M11 A2995 RMK AO2 SLP170 T10501111
KRIL 240853Z AUTO 30011KT 10SM OVC055 M04/M10 A2995 RMK AO2 SLP168 60000 T10441100 53000
KRIL 240753Z AUTO 28004KT 10SM SCT039 BKN048 OVC055 M05/M06 A2995 RMK AO2 SLP165 T10501061
KRIL 240653Z AUTO 27007KT 10SM OVC060 M04/M05 A2994 RMK AO2 SNE02 SLP160 P0000 T10391050 410061100
KRIL 240608Z AUTO 28005KT 10SM SCT014 SCT022 OVC047 M03/M06 A2994 RMK AO2 SNE02 P0000 T10331056
KRIL 240600Z AUTO 29004KT 7SM -SN BKN014 BKN023 OVC047 M03/M05 A2994 RMK AO2 P0000 T10331050
KRIL 240553Z AUTO 28004KT 8SM -SN SCT014 BKN023 OVC042 M03/M04 A2995 RMK AO2 SNB11E30B52 SLP165 P0000 60000 T10331044 11017 21044 51001
KRIL 240546Z AUTO 28003KT 10SM SCT014 BKN031 OVC050 M04/M04 A2995 RMK AO2 SNB11E30 P0000 T10391044